createdAt,value
2019-04-05T00:01:14.510Z,10.27
2019-04-05T00:03:43.323Z,5.83
2019-04-05T00:06:11.955Z,6.47
2019-04-05T00:08:40.422Z,6.13
2019-04-05T00:11:09.085Z,6.47
2019-04-05T00:13:37.582Z,6.87
2019-04-05T00:16:07.223Z,6.70
2019-04-05T00:18:35.650Z,6.70
2019-04-05T00:21:04.065Z,5.93
2019-04-05T00:23:32.727Z,7.90
2019-04-05T00:26:01.393Z,6.47
2019-04-05T00:28:30.057Z,8.03
2019-04-05T00:30:58.475Z,6.60
2019-04-05T00:33:26.885Z,5.60
2019-04-05T00:35:55.599Z,7.43
2019-04-05T00:38:24.277Z,5.93
2019-04-05T00:40:52.742Z,8.67
2019-04-05T00:43:21.405Z,10.57
2019-04-05T00:45:49.828Z,6.00
2019-04-05T00:48:18.314Z,6.83
2019-04-05T00:50:46.743Z,8.07
2019-04-05T00:53:15.158Z,7.90
2019-04-05T00:55:43.722Z,6.57
2019-04-05T00:58:12.134Z,7.30
2019-04-05T01:00:40.956Z,6.80
2019-04-05T01:03:09.661Z,7.47
2019-04-05T01:05:38.092Z,9.47
2019-04-05T01:08:06.506Z,9.00
2019-04-05T01:10:35.066Z,9.70
2019-04-05T01:13:03.840Z,7.28
2019-04-05T01:15:40.810Z,6.83
2019-04-05T01:18:02.974Z,6.67
2019-04-05T01:20:34.475Z,6.17
2019-04-05T01:23:03.416Z,6.60
2019-04-05T01:25:33.323Z,7.37
2019-04-05T01:28:01.806Z,6.90
2019-04-05T01:30:30.482Z,8.63
2019-04-05T01:32:58.910Z,7.63
2019-04-05T01:35:27.334Z,6.50
2019-04-05T01:37:56.183Z,7.37
2019-04-05T01:40:26.881Z,7.63
2019-04-05T01:42:55.534Z,7.43
2019-04-05T01:45:24.130Z,6.63
2019-04-05T01:47:52.542Z,7.53
2019-04-05T01:50:21.279Z,7.97
2019-04-05T01:52:49.838Z,6.90
2019-04-05T01:55:18.263Z,6.20
2019-04-05T01:57:46.687Z,7.50
2019-04-05T02:00:15.443Z,6.77
2019-04-05T02:02:43.989Z,7.47
2019-04-05T02:05:12.654Z,10.23
2019-04-05T02:07:41.511Z,7.23
2019-04-05T02:10:10.330Z,7.40
2019-04-05T02:12:39.327Z,9.13
2019-04-05T02:15:08.486Z,8.80
2019-04-05T02:17:37.238Z,8.43
2019-04-05T02:20:08.514Z,8.90
2019-04-05T02:22:37.417Z,8.63
2019-04-05T02:25:07.161Z,8.57
2019-04-05T02:27:35.658Z,7.13
2019-04-05T02:30:06.496Z,7.87
2019-04-05T02:32:35.288Z,7.53
2019-04-05T02:35:05.905Z,8.20
2019-04-05T02:37:34.579Z,8.60
2019-04-05T02:40:03.878Z,8.37
2019-04-05T02:42:34.100Z,9.17
2019-04-05T02:45:02.905Z,8.30
2019-04-05T02:47:31.957Z,7.30
2019-04-05T02:50:01.269Z,8.80
2019-04-05T02:52:31.028Z,10.00
2019-04-05T02:54:59.911Z,7.20
2019-04-05T02:57:29.370Z,8.50
2019-04-05T02:59:58.618Z,8.00
2019-04-05T03:02:27.899Z,7.87
2019-04-05T03:04:56.714Z,8.67
2019-04-05T03:07:27.545Z,8.70
2019-04-05T03:09:57.591Z,8.10
2019-04-05T03:12:26.506Z,8.17
2019-04-05T03:14:55.606Z,8.87
2019-04-05T03:17:25.921Z,8.60
2019-04-05T03:19:57.387Z,16.37
2019-04-05T03:22:29.155Z,8.13
2019-04-05T03:24:59.506Z,9.60
2019-04-05T03:27:31.046Z,8.90
2019-04-05T03:29:59.985Z,7.90
2019-04-05T03:32:28.480Z,9.07
2019-04-05T03:34:57.181Z,7.70
2019-04-05T03:37:26.054Z,9.43
2019-04-05T03:39:55.234Z,8.90
2019-04-05T03:42:24.060Z,9.00
2019-04-05T03:44:52.970Z,7.77
2019-04-05T03:47:21.646Z,9.07
2019-04-05T03:49:50.227Z,8.37
2019-04-05T03:52:18.717Z,8.87
2019-04-05T03:54:47.198Z,9.97
2019-04-05T03:57:15.711Z,10.10
2019-04-05T03:59:44.174Z,8.60
2019-04-05T04:02:12.672Z,9.40
2019-04-05T04:04:41.157Z,9.20
2019-04-05T04:07:09.731Z,15.70
2019-04-05T04:09:38.485Z,11.38
2019-04-05T04:12:07.305Z,10.47
2019-04-05T04:14:36.755Z,10.53
2019-04-05T04:17:12.810Z,10.40
2019-04-05T04:19:36.747Z,11.40
2019-04-05T04:22:20.239Z,8.63
2019-04-05T04:24:49.563Z,10.50
2019-04-05T04:27:18.390Z,9.97
2019-04-05T04:29:47.103Z,10.10
2019-04-05T04:32:15.594Z,10.43
2019-04-05T04:34:44.269Z,9.70
2019-04-05T04:37:13.319Z,10.43
2019-04-05T04:39:41.747Z,11.05
2019-04-05T04:42:11.293Z,10.00
2019-04-05T04:44:39.866Z,11.57
2019-04-05T04:47:08.530Z,10.47
2019-04-05T04:49:37.400Z,11.00
2019-04-05T04:52:06.093Z,12.30
2019-04-05T04:54:34.661Z,15.23
2019-04-05T04:57:03.137Z,11.00
2019-04-05T04:59:32.462Z,13.00
2019-04-05T05:02:00.873Z,15.43
2019-04-05T05:04:30.095Z,12.33
2019-04-05T05:07:03.221Z,16.20
2019-04-05T05:09:31.926Z,12.63
2019-04-05T05:12:00.877Z,14.43
2019-04-05T05:14:29.830Z,14.87
2019-04-05T05:16:58.363Z,11.53
2019-04-05T05:19:27.061Z,14.03
2019-04-05T05:21:55.774Z,13.62
2019-04-05T05:24:24.622Z,16.47
2019-04-05T05:26:53.305Z,15.00
2019-04-05T05:29:22.286Z,15.23
2019-04-05T05:31:50.814Z,15.10
2019-04-05T05:34:19.373Z,14.87
2019-04-05T05:36:48.678Z,16.53
2019-04-05T05:39:17.242Z,20.50
2019-04-05T05:41:45.956Z,17.83
2019-04-05T05:44:14.760Z,20.33
2019-04-05T05:46:43.174Z,21.60
2019-04-05T05:49:11.602Z,20.90
2019-04-05T05:51:40.508Z,17.47
2019-04-05T05:54:09.205Z,21.50
2019-04-05T05:56:37.670Z,20.47
2019-04-05T05:59:06.266Z,22.20
2019-04-05T06:01:34.685Z,19.97
2019-04-05T06:04:03.118Z,27.00
2019-04-05T06:06:31.534Z,24.40
2019-04-05T06:08:59.970Z,26.63
2019-04-05T06:11:28.390Z,22.87
2019-04-05T06:13:57.071Z,24.80
2019-04-05T06:16:25.643Z,24.20
2019-04-05T06:18:54.062Z,17.77
2019-04-05T06:21:22.494Z,23.60
2019-04-05T06:23:50.910Z,21.10
2019-04-05T06:26:19.595Z,26.00
2019-04-05T06:28:48.135Z,20.90
2019-04-05T06:31:16.854Z,18.83
2019-04-05T06:33:45.309Z,21.37
2019-04-05T06:36:14.017Z,23.87
2019-04-05T06:38:42.423Z,26.70
2019-04-05T06:41:10.849Z,20.13
2019-04-05T06:43:39.265Z,28.00
2019-04-05T06:46:07.770Z,21.90
2019-04-05T06:48:36.289Z,21.20
2019-04-05T06:51:04.786Z,24.90
2019-04-05T06:53:33.198Z,26.13
2019-04-05T06:56:01.621Z,26.17
2019-04-05T06:58:30.046Z,22.77
2019-04-05T07:00:59.103Z,23.73
2019-04-05T07:03:27.874Z,23.40
2019-04-05T07:05:56.299Z,26.10
2019-04-05T07:08:24.986Z,26.20
2019-04-05T07:10:53.418Z,22.70
2019-04-05T07:13:21.829Z,26.10
2019-04-05T07:15:50.478Z,27.60
2019-04-05T07:18:31.235Z,22.90
2019-04-05T07:20:49.092Z,23.03
2019-04-05T07:23:17.515Z,23.83
2019-04-05T07:25:45.946Z,23.53
2019-04-05T07:28:14.580Z,20.13
2019-04-05T07:30:43.045Z,29.17
2019-04-05T07:33:11.726Z,36.70
2019-04-05T07:35:40.415Z,29.80
2019-04-05T07:38:09.896Z,32.07
2019-04-05T07:40:38.605Z,29.37
2019-04-05T07:43:07.030Z,26.13
2019-04-05T07:45:35.453Z,32.63
2019-04-05T07:48:03.949Z,26.43
2019-04-05T07:50:32.633Z,21.23
2019-04-05T07:53:01.063Z,23.00
2019-04-05T07:55:29.481Z,23.13
2019-04-05T07:57:57.898Z,27.43
2019-04-05T08:00:46.474Z,26.80
2019-04-05T08:03:14.975Z,23.20
2019-04-05T08:05:43.727Z,22.57
2019-04-05T08:08:15.226Z,27.30
2019-04-05T08:10:44.645Z,23.20
2019-04-05T08:13:15.520Z,24.07
2019-04-05T08:15:43.947Z,26.63
2019-04-05T08:18:12.382Z,24.07
2019-04-05T08:20:40.806Z,20.87
2019-04-05T08:23:09.445Z,18.80
2019-04-05T08:25:39.804Z,21.93
2019-04-05T08:28:08.059Z,26.37
2019-04-05T08:30:36.544Z,22.70
2019-04-05T08:33:05.210Z,21.33
2019-04-05T08:35:33.870Z,24.93
2019-04-05T08:38:02.522Z,20.33
2019-04-05T08:40:30.989Z,25.53
2019-04-05T08:42:59.417Z,28.23
2019-04-05T08:45:27.853Z,24.57
2019-04-05T08:47:56.280Z,28.43
2019-04-05T08:50:24.722Z,17.17
2019-04-05T08:52:53.153Z,22.80
2019-04-05T08:55:21.836Z,19.73
2019-04-05T08:57:50.277Z,20.23
2019-04-05T09:00:19.005Z,21.93
2019-04-05T09:02:47.830Z,15.30
2019-04-05T09:05:16.596Z,23.33
2019-04-05T09:07:45.027Z,17.33
2019-04-05T09:10:13.593Z,15.50
2019-04-05T09:12:42.016Z,14.80
2019-04-05T09:15:10.516Z,23.77
2019-04-05T09:17:38.964Z,19.77
2019-04-05T09:20:07.451Z,19.90
2019-04-05T09:22:35.898Z,19.33
2019-04-05T09:25:06.362Z,14.80
2019-04-05T09:27:34.806Z,14.17
2019-04-05T09:30:04.848Z,12.60
2019-04-05T09:32:33.285Z,15.17
2019-04-05T09:35:01.978Z,15.20
2019-04-05T09:37:30.398Z,14.57
2019-04-05T09:39:58.835Z,14.70
2019-04-05T09:42:27.258Z,14.37
2019-04-05T09:44:55.726Z,14.70
2019-04-05T09:47:24.160Z,13.80
2019-04-05T09:49:53.759Z,14.13
2019-04-05T09:52:22.187Z,15.87
2019-04-05T09:54:50.633Z,11.73
2019-04-05T09:57:19.051Z,12.80
2019-04-05T09:59:47.478Z,12.87
2019-04-05T10:02:15.899Z,14.60
2019-04-05T10:04:44.431Z,17.70
2019-04-05T10:07:12.846Z,17.27
2019-04-05T10:09:41.277Z,13.57
2019-04-05T10:12:09.702Z,12.40
2019-04-05T10:14:38.403Z,13.60
2019-04-05T10:17:06.833Z,15.13
2019-04-05T10:19:35.271Z,15.37
2019-04-05T10:22:03.684Z,19.63
2019-04-05T10:24:33.162Z,12.77
2019-04-05T10:27:01.976Z,15.13
2019-04-05T10:29:30.496Z,14.17
2019-04-05T10:31:59.165Z,13.27
2019-04-05T10:34:27.611Z,23.60
2019-04-05T10:36:56.304Z,13.67
2019-04-05T10:39:24.738Z,16.67
2019-04-05T10:42:03.258Z,15.73
2019-04-05T10:44:23.395Z,19.27
2019-04-05T10:46:52.071Z,16.37
2019-04-05T10:49:20.506Z,16.67
2019-04-05T10:51:48.930Z,19.70
2019-04-05T10:54:17.372Z,15.83
2019-04-05T10:56:45.793Z,18.60
2019-04-05T10:59:14.231Z,25.50
2019-04-05T11:01:42.653Z,16.77
2019-04-05T11:04:11.091Z,15.10
2019-04-05T11:06:39.760Z,16.83
2019-04-05T11:09:08.258Z,16.83
2019-04-05T11:11:36.687Z,20.93
2019-04-05T11:14:13.552Z,16.87
2019-04-05T11:16:35.687Z,20.40
2019-04-05T11:19:04.279Z,26.10
2019-04-05T11:21:32.714Z,16.90
2019-04-05T11:24:01.138Z,22.70
2019-04-05T11:26:29.829Z,17.67
2019-04-05T11:28:58.252Z,18.10
2019-04-05T11:31:26.860Z,18.80
2019-04-05T11:33:55.295Z,18.90
2019-04-05T11:36:24.974Z,19.97
2019-04-05T11:38:53.458Z,18.27
2019-04-05T11:41:23.837Z,19.93
2019-04-05T11:43:53.993Z,23.73
2019-04-05T11:46:22.842Z,18.90
2019-04-05T11:48:51.876Z,22.13
2019-04-05T11:51:20.310Z,17.77
2019-04-05T11:53:48.736Z,20.43
2019-04-05T11:56:19.750Z,19.07
2019-04-05T11:58:49.058Z,15.70
2019-04-05T12:01:23.598Z,16.27
2019-04-05T12:03:52.366Z,17.30
2019-04-05T12:06:20.805Z,22.40
2019-04-05T12:08:49.225Z,20.53
2019-04-05T12:11:17.657Z,21.80
2019-04-05T12:13:48.616Z,21.07
2019-04-05T12:16:17.055Z,20.63
2019-04-05T12:18:45.482Z,19.60
2019-04-05T12:21:13.919Z,15.07
2019-04-05T12:23:42.615Z,19.17
2019-04-05T12:26:11.302Z,17.80
2019-04-05T12:28:39.735Z,18.10
2019-04-05T12:31:08.161Z,21.73
2019-04-05T12:33:36.590Z,22.50
2019-04-05T12:36:05.483Z,18.87
2019-04-05T12:38:34.004Z,20.30
2019-04-05T12:41:04.125Z,18.70
2019-04-05T12:43:33.251Z,17.50
2019-04-05T12:46:01.913Z,18.57
2019-04-05T12:48:30.605Z,17.50
2019-04-05T12:51:01.234Z,21.40
2019-04-05T12:53:29.238Z,16.20
2019-04-05T12:55:57.907Z,15.60
2019-04-05T12:58:26.736Z,12.93
2019-04-05T13:00:56.138Z,15.13
2019-04-05T13:03:25.412Z,16.97
2019-04-05T13:05:56.830Z,15.13
2019-04-05T13:08:24.158Z,17.13
2019-04-05T13:10:55.499Z,15.57
2019-04-05T13:13:26.649Z,15.50
2019-04-05T13:15:53.262Z,19.40
2019-04-05T13:18:21.717Z,10.50
2019-04-05T13:20:50.474Z,14.43
2019-04-05T13:23:18.907Z,19.27
2019-04-05T13:25:47.699Z,17.07
2019-04-05T13:28:18.984Z,16.23
2019-04-05T13:30:48.586Z,18.30
2019-04-05T13:33:16.992Z,16.53
2019-04-05T13:35:45.679Z,20.20
2019-04-05T13:38:14.361Z,17.50
2019-04-05T13:40:42.882Z,18.63
2019-04-05T13:43:11.590Z,16.97
2019-04-05T13:45:40.283Z,19.90
2019-04-05T13:48:09.624Z,17.10
2019-04-05T13:50:41.444Z,24.57
2019-04-05T13:53:11.112Z,17.27
2019-04-05T13:55:40.740Z,23.50
2019-04-05T13:58:11.306Z,17.27
2019-04-05T14:00:39.315Z,18.53
2019-04-05T14:03:07.756Z,22.50
2019-04-05T14:05:36.254Z,23.33
2019-04-05T14:08:10.416Z,26.10
2019-04-05T14:10:34.946Z,20.50
2019-04-05T14:13:03.813Z,20.40
2019-04-05T14:15:32.379Z,22.17
2019-04-05T14:18:02.526Z,27.80
2019-04-05T14:20:30.954Z,18.73
2019-04-05T14:22:59.942Z,24.03
2019-04-05T14:25:30.233Z,24.63
2019-04-05T14:27:59.146Z,21.73
2019-04-05T14:30:27.702Z,21.63
2019-04-05T14:32:56.522Z,18.30
2019-04-05T14:35:25.566Z,21.13
2019-04-05T14:37:54.502Z,19.33
2019-04-05T14:40:23.953Z,18.73
2019-04-05T14:42:52.593Z,19.30
2019-04-05T14:45:21.117Z,18.20
2019-04-05T14:47:49.659Z,16.50
2019-04-05T14:50:18.434Z,24.07
2019-04-05T14:52:49.469Z,18.67
2019-04-05T14:55:17.387Z,15.33
2019-04-05T14:57:46.865Z,16.63
2019-04-05T15:00:17.548Z,15.60
2019-04-05T15:02:46.083Z,19.87
2019-04-05T15:05:15.133Z,21.93
2019-04-05T15:07:43.745Z,18.50
2019-04-05T15:10:12.650Z,20.13
2019-04-05T15:12:41.135Z,23.03
2019-04-05T15:15:12.594Z,19.33
2019-04-05T15:17:47.907Z,19.70
2019-04-05T15:20:11.576Z,20.90
2019-04-05T15:22:42.155Z,17.23
2019-04-05T15:25:10.456Z,20.43
2019-04-05T15:27:38.924Z,19.30
2019-04-05T15:30:07.901Z,18.07
2019-04-05T15:32:37.237Z,18.50
2019-04-05T15:35:07.403Z,21.50
2019-04-05T15:37:37.675Z,19.80
2019-04-05T15:40:08.269Z,22.17
2019-04-05T15:42:37.055Z,19.60
2019-04-05T15:45:08.183Z,18.10
2019-04-05T15:47:36.613Z,21.60
2019-04-05T15:50:06.953Z,19.20
2019-04-05T15:52:35.667Z,18.07
2019-04-05T15:55:05.775Z,19.80
2019-04-05T15:57:34.402Z,17.80
2019-04-05T16:00:05.982Z,19.90
2019-04-05T16:02:34.688Z,16.97
2019-04-05T16:05:03.515Z,22.33
2019-04-05T16:07:32.119Z,21.63
2019-04-05T16:10:00.560Z,22.97
2019-04-05T16:12:29.163Z,22.93
2019-04-05T16:14:57.977Z,21.10
2019-04-05T16:17:26.403Z,19.60
2019-04-05T16:19:55.138Z,31.50
2019-04-05T16:22:31.368Z,23.80
2019-04-05T16:24:53.743Z,22.60
2019-04-05T16:27:22.191Z,20.90
2019-04-05T16:29:50.768Z,21.77
2019-04-05T16:32:19.402Z,26.53
2019-04-05T16:34:47.829Z,26.00
2019-04-05T16:37:16.374Z,29.83
2019-04-05T16:39:45.051Z,21.87
2019-04-05T16:42:13.503Z,27.03
2019-04-05T16:44:42.063Z,28.87
2019-04-05T16:47:10.503Z,25.23
2019-04-05T16:49:38.930Z,27.90
2019-04-05T16:52:07.371Z,25.13
2019-04-05T16:54:35.794Z,24.50
2019-04-05T16:57:04.297Z,24.30
2019-04-05T16:59:32.945Z,26.77
2019-04-05T17:02:01.661Z,29.57
2019-04-05T17:04:30.081Z,27.20
2019-04-05T17:06:58.514Z,28.77
2019-04-05T17:09:27.319Z,34.67
2019-04-05T17:11:55.763Z,24.97
2019-04-05T17:14:24.190Z,31.13
2019-04-05T17:16:52.635Z,28.63
2019-04-05T17:19:21.312Z,37.40
2019-04-05T17:21:49.813Z,29.10
2019-04-05T17:24:18.302Z,31.53
2019-04-05T17:26:46.730Z,32.13
2019-04-05T17:29:15.167Z,26.70
2019-04-05T17:31:43.805Z,29.63
2019-04-05T17:34:12.485Z,29.40
2019-04-05T17:36:40.950Z,32.37
2019-04-05T17:39:09.631Z,33.37
2019-04-05T17:41:38.278Z,26.40
2019-04-05T17:44:06.828Z,31.70
2019-04-05T17:46:35.250Z,34.73
2019-04-05T17:49:03.690Z,32.33
2019-04-05T17:51:32.195Z,28.13
2019-04-05T17:54:00.893Z,27.33
2019-04-05T17:56:29.306Z,27.50
2019-04-05T17:58:57.819Z,30.63
2019-04-05T18:01:26.407Z,28.50
2019-04-05T18:03:54.841Z,32.27
2019-04-05T18:06:23.267Z,32.70
2019-04-05T18:08:51.703Z,31.30
2019-04-05T18:11:20.160Z,29.93
2019-04-05T18:13:48.595Z,31.40
2019-04-05T18:16:17.014Z,32.20
2019-04-05T18:18:45.450Z,36.50
2019-04-05T18:21:13.874Z,34.63
2019-04-05T18:23:42.550Z,32.90
2019-04-05T18:26:11.239Z,30.70
2019-04-05T18:28:39.683Z,36.20
2019-04-05T18:31:08.171Z,30.13
2019-04-05T18:33:36.692Z,29.80
2019-04-05T18:36:05.358Z,33.83
2019-04-05T18:38:33.778Z,31.10
2019-04-05T18:41:02.286Z,33.23
2019-04-05T18:43:30.702Z,30.83
2019-04-05T18:45:59.210Z,28.63
2019-04-05T18:48:27.635Z,29.60
2019-04-05T18:50:56.067Z,33.13
2019-04-05T18:53:36.764Z,33.20
2019-04-05T18:55:54.922Z,29.83
2019-04-05T18:58:23.343Z,34.00
2019-04-05T19:00:51.783Z,37.40
2019-04-05T19:03:20.463Z,33.43
2019-04-05T19:05:48.894Z,37.37
2019-04-05T19:08:17.423Z,36.10
2019-04-05T19:10:45.855Z,46.03
2019-04-05T19:13:14.293Z,37.67
2019-04-05T19:16:02.317Z,33.83
2019-04-05T19:18:30.796Z,37.27
2019-04-05T19:20:59.880Z,33.47
2019-04-05T19:23:28.612Z,43.23
2019-04-05T19:25:57.381Z,34.93
2019-04-05T19:28:25.807Z,42.50
2019-04-05T19:50:54.626Z,40.75
2019-04-05T19:53:23.054Z,36.83
2019-04-05T19:55:51.494Z,46.00
2019-04-05T19:58:20.200Z,38.95
2019-04-05T20:00:48.990Z,46.00
2019-04-05T20:03:17.668Z,48.23
2019-04-05T20:05:46.165Z,44.77
2019-04-05T20:08:16.573Z,44.90
2019-04-05T20:10:45.076Z,44.55
2019-04-05T20:13:13.509Z,46.17
2019-04-05T20:15:41.948Z,44.00
2019-04-05T20:18:10.627Z,42.62
2019-04-05T20:20:39.082Z,47.85
2019-04-05T20:23:07.519Z,50.13
2019-04-05T20:25:35.958Z,42.30
2019-04-05T20:28:04.383Z,46.30
2019-04-05T20:30:32.825Z,50.12
2019-04-05T20:33:01.250Z,47.77
2019-04-05T20:35:29.913Z,46.70
2019-04-05T20:37:58.444Z,46.80
2019-04-05T20:40:26.866Z,43.50
2019-04-05T20:42:55.298Z,47.97
2019-04-05T20:45:24.142Z,47.20
2019-04-05T20:47:52.569Z,47.33
2019-04-05T20:50:21.252Z,51.93
2019-04-05T20:52:49.687Z,50.07
2019-04-05T20:55:18.390Z,50.38
2019-04-05T20:57:46.866Z,47.40
2019-04-05T21:00:16.507Z,46.92
2019-04-05T21:02:44.947Z,45.03
2019-04-05T21:05:13.369Z,48.45
2019-04-05T21:07:41.812Z,39.73
2019-04-05T21:10:10.477Z,45.15
2019-04-05T21:12:38.908Z,45.03
2019-04-05T21:15:07.326Z,48.33
2019-04-05T21:17:35.869Z,41.23
2019-04-05T21:20:05.730Z,39.98
2019-04-05T21:22:34.510Z,38.90
2019-04-05T21:25:03.457Z,37.37
2019-04-05T21:27:31.949Z,35.30
2019-04-05T21:30:00.374Z,35.07
2019-04-05T21:32:29.117Z,37.17
2019-04-05T21:34:57.535Z,37.53
2019-04-05T21:37:25.968Z,36.20
2019-04-05T21:39:54.385Z,40.63
2019-04-05T21:42:22.813Z,39.40
2019-04-05T21:44:51.239Z,37.10
2019-04-05T21:47:19.663Z,39.40
2019-04-05T21:49:48.092Z,34.17
2019-04-05T21:52:16.514Z,45.40
2019-04-05T21:54:47.737Z,34.17
2019-04-05T21:57:15.331Z,29.50
2019-04-05T21:59:44.087Z,38.40
2019-04-05T22:02:12.549Z,39.80
2019-04-05T22:04:41.210Z,33.00
2019-04-05T22:07:09.875Z,35.13
2019-04-05T22:09:38.574Z,33.00
2019-04-05T22:12:07.012Z,30.50
2019-04-05T22:14:35.425Z,28.53
2019-04-05T22:17:03.853Z,33.07
2019-04-05T22:19:32.297Z,31.53
2019-04-05T22:22:00.974Z,32.20
2019-04-05T22:24:29.403Z,33.97
2019-04-05T22:26:57.820Z,29.40
2019-04-05T22:29:26.252Z,34.63
2019-04-05T22:31:54.716Z,39.00
2019-04-05T22:34:23.169Z,34.00
2019-04-05T22:36:51.838Z,32.60
2019-04-05T22:39:21.515Z,36.73
2019-04-05T22:41:50.318Z,28.70
2019-04-05T22:44:18.741Z,32.23
2019-04-05T22:46:47.430Z,37.73
2019-04-05T22:49:15.862Z,32.87
2019-04-05T22:51:44.524Z,33.80
2019-04-05T22:54:12.952Z,27.80
2019-04-05T22:56:41.614Z,31.30
2019-04-05T22:59:12.576Z,45.23
2019-04-05T23:01:40.181Z,37.30
2019-04-05T23:04:08.614Z,36.67
2019-04-05T23:06:37.291Z,30.97
2019-04-05T23:09:07.057Z,32.60
2019-04-05T23:11:35.470Z,32.93
2019-04-05T23:14:03.965Z,30.43
2019-04-05T23:16:32.642Z,33.80
2019-04-05T23:19:01.075Z,37.87
2019-04-05T23:21:29.714Z,30.17
2019-04-05T23:23:58.262Z,29.10
2019-04-05T23:26:28.846Z,32.80
2019-04-05T23:28:56.841Z,29.20
2019-04-05T23:31:25.261Z,28.60
2019-04-05T23:33:53.836Z,29.33
2019-04-05T23:36:22.246Z,29.40
2019-04-05T23:38:50.681Z,30.53
2019-04-05T23:41:19.106Z,32.53
2019-04-05T23:43:47.758Z,28.73
2019-04-05T23:46:16.439Z,38.80
2019-04-05T23:48:44.907Z,34.23
2019-04-05T23:51:13.584Z,31.23
2019-04-05T23:53:42.019Z,34.50
2019-04-05T23:56:10.433Z,38.33
2019-04-05T23:58:38.874Z,38.67
